Stock Island, Florida
Current Conditions -  °F | °C
As of 6:53 AM on Sunday 25 Jan 2015 (Local Time) from KEYW Reporting Station
Overcast Overcast  
Wind Chill: 65°   Ceiling: 3900
Heat Index: 65°   Visibility: 10mi
Dew Point: 54°   Wind: 10mph
Humidity: 68%   Direction: 350°N
Pressure: 30.07"   Gusts: NA
Location:  24.5554°N, 81.8052°W
Report Text: KEYW 251153Z AUTO 35009KT 10SM OVC039 18/12 A3007 RMK AO2 SLP182 70004 T01830122 10189 20183 53012
Loading
Personal Weather Stations






























Interactive Weather Map New forecast layout! Learn more

10-Day Weather Forecast

Advertisements
Track Severe Weather on mobile